Aeroporto :
LOGIN :

Iscrizione | Disclaimer

   EN    FR    IT 

 










Sommario :    VFR   VFR Marginale   IFR   IFR Intensivo   IFR Molto Intensivo
Visibilità : 
Base nubi : 
>= 8 km
>= 3000ft
5 / 8 km
1000 / 3000 ft
1500m / 5 km
500 / 1000 ft
800 / 1500m
200 / 500 ft
< 800m
< 200 ft
Simboli :   Temporali  Nebbia  Neve Forte  Precipitazioni Forti  Vento > 20 kt
SIGMETs :   Varie  Temporali  Ghiacco  Turbolenza  Onda orograficha  Ceneri Vulcaniche






- Altitudine del aeroporto : 1161 ft
- Codice IATA : RJL


LELO - Logroño-Agoncillo

ULTIMO METAR :
  • 121030Z 26012KT 9999 SCT039 10/04 Q1015

METARs OBSOLETI :
  • 121000Z 27017KT 9999 SCT039 10/04 Q1015
  • 120930Z 27010KT 9999 FEW030 BKN039 09/04 Q1015
  • 120900Z 28007KT 250V320 9999 FEW030 BKN040 08/05 Q1015
  • 120830Z 28007KT 9999 FEW020 BKN038 08/04 Q1016
  • 120800Z 27005KT 9999 FEW020 BKN038 08/05 Q1016

TAF TAF LELO
Valido dal 12 a 09 ore il 12 a 18 ore UTC


120800Z 1209/1218 28013KT 9999 SCT020 BKN040



MetMap, La meteo Aeronautica in un colpo d'occhio ! - Copyright ORBIFLY Dicembre 2007 - Disclaimer

ORBIFLY MET'MAP TEAM :

Programmazione e sviluppo : Alexandra Zaïnal
Concezione e sviluppo : Baudouin d'Aumeries
Co-Programmazione e sviluppo : Marc-Olivier Méhu
Supporto tecnico e logistico : Manuel Goepfert
Aiuto per la traduzione : Arnaldo La Scala

Contatto : metmap@orbifly.com




FONTI E CREDITI :

   NOAA